sensor_id;sensor_type;location;lat;lon;timestamp;pressure;altitude;pressure_sealevel;temperature;humidity
28306;BME280;7516;43.570;1.448;2023-02-28T00:01:42;99975.63;;;2.14;76.04
28306;BME280;7516;43.570;1.448;2023-02-28T00:04:10;99974.91;;;2.12;75.09
28306;BME280;7516;43.570;1.448;2023-02-28T00:06:38;99979.41;;;2.10;76.36
28306;BME280;7516;43.570;1.448;2023-02-28T00:09:05;99972.56;;;2.09;75.30
28306;BME280;7516;43.570;1.448;2023-02-28T00:11:33;99985.50;;;2.09;75.79
28306;BME280;7516;43.570;1.448;2023-02-28T00:14:02;99986.53;;;2.07;75.77
28306;BME280;7516;43.570;1.448;2023-02-28T00:16:29;99994.19;;;2.08;75.99
28306;BME280;7516;43.570;1.448;2023-02-28T00:18:57;99990.88;;;2.06;76.20
28306;BME280;7516;43.570;1.448;2023-02-28T00:21:24;99990.88;;;2.06;75.35
28306;BME280;7516;43.570;1.448;2023-02-28T00:23:52;99985.00;;;2.04;76.00
28306;BME280;7516;43.570;1.448;2023-02-28T00:26:20;99981.47;;;2.05;76.23
28306;BME280;7516;43.570;1.448;2023-02-28T00:28:47;99981.47;;;2.05;76.24
28306;BME280;7516;43.570;1.448;2023-02-28T00:31:17;99987.00;;;2.01;76.24
28306;BME280;7516;43.570;1.448;2023-02-28T00:33:44;99997.44;;;1.99;76.35
28306;BME280;7516;43.570;1.448;2023-02-28T00:36:12;99978.84;;;1.94;76.01
28306;BME280;7516;43.570;1.448;2023-02-28T00:38:40;99984.25;;;1.91;75.39
28306;BME280;7516;43.570;1.448;2023-02-28T00:41:08;99986.31;;;1.86;76.27
28306;BME280;7516;43.570;1.448;2023-02-28T00:43:38;99990.16;;;1.80;75.31
28306;BME280;7516;43.570;1.448;2023-02-28T00:46:06;99995.25;;;1.69;75.72
28306;BME280;7516;43.570;1.448;2023-02-28T00:48:36;99989.81;;;1.61;75.78
28306;BME280;7516;43.570;1.448;2023-02-28T00:51:04;99995.31;;;1.57;76.13
28306;BME280;7516;43.570;1.448;2023-02-28T00:53:31;100004.00;;;1.56;76.46
28306;BME280;7516;43.570;1.448;2023-02-28T00:55:59;100011.75;;;1.56;76.09
28306;BME280;7516;43.570;1.448;2023-02-28T00:58:27;100012.47;;;1.58;76.93
28306;BME280;7516;43.570;1.448;2023-02-28T01:00:54;100017.41;;;1.61;76.89
28306;BME280;7516;43.570;1.448;2023-02-28T01:03:22;100027.53;;;1.64;77.04
28306;BME280;7516;43.570;1.448;2023-02-28T01:05:51;100019.44;;;1.68;76.37
28306;BME280;7516;43.570;1.448;2023-02-28T01:08:19;100024.28;;;1.73;76.72
28306;BME280;7516;43.570;1.448;2023-02-28T01:10:47;100025.03;;;1.75;77.70
28306;BME280;7516;43.570;1.448;2023-02-28T01:13:15;100021.50;;;1.76;77.71
28306;BME280;7516;43.570;1.448;2023-02-28T01:15:45;100026.44;;;1.79;77.81
28306;BME280;7516;43.570;1.448;2023-02-28T01:18:13;100039.25;;;1.80;77.53
28306;BME280;7516;43.570;1.448;2023-02-28T01:20:40;100039.13;;;1.82;78.35
28306;BME280;7516;43.570;1.448;2023-02-28T01:23:09;100030.66;;;1.80;77.47
28306;BME280;7516;43.570;1.448;2023-02-28T01:25:37;100036.56;;;1.82;77.68
28306;BME280;7516;43.570;1.448;2023-02-28T01:28:05;100029.75;;;1.81;78.38
28306;BME280;7516;43.570;1.448;2023-02-28T01:30:33;100040.06;;;1.81;77.77
28306;BME280;7516;43.570;1.448;2023-02-28T01:33:00;100040.78;;;1.83;77.80
28306;BME280;7516;43.570;1.448;2023-02-28T01:35:28;100035.63;;;1.83;78.57
28306;BME280;7516;43.570;1.448;2023-02-28T01:37:55;100031.28;;;1.83;78.83
28306;BME280;7516;43.570;1.448;2023-02-28T01:40:24;100041.72;;;1.82;78.90
28306;BME280;7516;43.570;1.448;2023-02-28T01:42:52;100038.41;;;1.80;78.63
28306;BME280;7516;43.570;1.448;2023-02-28T01:45:23;100045.25;;;1.81;78.47
28306;BME280;7516;43.570;1.448;2023-02-28T01:47:55;100048.53;;;1.83;78.79
28306;BME280;7516;43.570;1.448;2023-02-28T01:50:28;100047.47;;;1.85;78.65
28306;BME280;7516;43.570;1.448;2023-02-28T01:52:59;100054.41;;;1.85;79.29
28306;BME280;7516;43.570;1.448;2023-02-28T01:55:30;100046.56;;;1.86;79.22
28306;BME280;7516;43.570;1.448;2023-02-28T01:58:02;100057.59;;;1.88;78.79
28306;BME280;7516;43.570;1.448;2023-02-28T02:00:31;100054.94;;;1.90;78.86
28306;BME280;7516;43.570;1.448;2023-02-28T02:03:00;100059.25;;;1.89;79.20
28306;BME280;7516;43.570;1.448;2023-02-28T02:05:32;100050.59;;;1.91;79.89
28306;BME280;7516;43.570;1.448;2023-02-28T02:08:03;100051.41;;;1.91;78.97
28306;BME280;7516;43.570;1.448;2023-02-28T02:10:34;100058.22;;;1.92;80.18
28306;BME280;7516;43.570;1.448;2023-02-28T02:13:20;100056.47;;;1.93;80.02
28306;BME280;7516;43.570;1.448;2023-02-28T02:15:56;100065.97;;;1.92;80.06
28306;BME280;7516;43.570;1.448;2023-02-28T02:18:32;100072.81;;;1.93;79.02
28306;BME280;7516;43.570;1.448;2023-02-28T02:21:42;100067.50;;;1.95;80.22
28306;BME280;7516;43.570;1.448;2023-02-28T02:27:22;100058.63;;;1.99;79.18
28306;BME280;7516;43.570;1.448;2023-02-28T02:30:21;100050.88;;;1.99;79.43
28306;BME280;7516;43.570;1.448;2023-02-28T02:33:11;100054.28;;;1.99;79.80
28306;BME280;7516;43.570;1.448;2023-02-28T02:35:53;100051.59;;;2.01;79.43
28306;BME280;7516;43.570;1.448;2023-02-28T02:38:33;100054.06;;;2.02;79.48
28306;BME280;7516;43.570;1.448;2023-02-28T02:41:12;100051.59;;;2.01;79.44
28306;BME280;7516;43.570;1.448;2023-02-28T02:43:46;100054.06;;;2.02;79.51
28306;BME280;7516;43.570;1.448;2023-02-28T02:46:18;100044.53;;;2.03;79.65
28306;BME280;7516;43.570;1.448;2023-02-28T02:48:47;100038.31;;;2.05;79.80
28306;BME280;7516;43.570;1.448;2023-02-28T02:51:18;100041.63;;;2.07;79.35
28306;BME280;7516;43.570;1.448;2023-02-28T02:53:52;100031.41;;;2.06;80.27
28306;BME280;7516;43.570;1.448;2023-02-28T02:56:24;100030.69;;;2.04;80.52
28306;BME280;7516;43.570;1.448;2023-02-28T02:58:57;100031.50;;;2.04;80.34
28306;BME280;7516;43.570;1.448;2023-02-28T03:01:27;100036.66;;;2.04;79.87
28306;BME280;7516;43.570;1.448;2023-02-28T03:03:58;100042.56;;;2.06;80.20
28306;BME280;7516;43.570;1.448;2023-02-28T03:06:28;100034.81;;;2.06;80.52
28306;BME280;7516;43.570;1.448;2023-02-28T03:08:56;100028.00;;;2.05;80.40
28306;BME280;7516;43.570;1.448;2023-02-28T03:11:23;100033.16;;;2.05;80.45
28306;BME280;7516;43.570;1.448;2023-02-28T03:14:15;100023.75;;;2.04;79.23
28306;BME280;7516;43.570;1.448;2023-02-28T03:19:55;100015.88;;;2.06;79.16
28306;BME280;7516;43.570;1.448;2023-02-28T03:22:52;100022.09;;;2.03;79.48
28306;BME280;7516;43.570;1.448;2023-02-28T03:25:32;100018.69;;;2.03;79.88
28306;BME280;7516;43.570;1.448;2023-02-28T03:28:05;100017.88;;;2.02;80.15
28306;BME280;7516;43.570;1.448;2023-02-28T03:30:41;100015.31;;;2.02;80.16
28306;BME280;7516;43.570;1.448;2023-02-28T03:33:12;100019.66;;;2.02;79.92
28306;BME280;7516;43.570;1.448;2023-02-28T03:35:45;100014.59;;;2.00;79.99
28306;BME280;7516;43.570;1.448;2023-02-28T03:38:20;100022.22;;;2.02;79.85
28306;BME280;7516;43.570;1.448;2023-02-28T03:40:54;100023.06;;;2.02;79.70
28306;BME280;7516;43.570;1.448;2023-02-28T03:43:26;100022.22;;;2.02;79.73
28306;BME280;7516;43.570;1.448;2023-02-28T03:45:55;100022.09;;;2.03;79.82
28306;BME280;7516;43.570;1.448;2023-02-28T03:48:27;100012.94;;;1.99;79.85
28306;BME280;7516;43.570;1.448;2023-02-28T03:50:59;100014.69;;;1.99;78.96
28306;BME280;7516;43.570;1.448;2023-02-28T03:53:32;100016.44;;;1.98;78.69
28306;BME280;7516;43.570;1.448;2023-02-28T03:56:05;100014.78;;;1.97;78.54
28306;BME280;7516;43.570;1.448;2023-02-28T03:58:40;100018.31;;;1.96;79.49
28306;BME280;7516;43.570;1.448;2023-02-28T04:01:12;100021.81;;;1.95;78.69
28306;BME280;7516;43.570;1.448;2023-02-28T04:03:40;100030.50;;;1.94;79.41
28306;BME280;7516;43.570;1.448;2023-02-28T04:06:12;100027.09;;;1.94;79.21
28306;BME280;7516;43.570;1.448;2023-02-28T04:08:43;100024.75;;;1.91;79.34
28306;BME280;7516;43.570;1.448;2023-02-28T04:11:19;100056.78;;;1.88;78.69
28306;BME280;7516;43.570;1.448;2023-02-28T04:13:47;100029.53;;;1.84;78.58
28306;BME280;7516;43.570;1.448;2023-02-28T04:16:15;100042.75;;;1.79;78.71
28306;BME280;7516;43.570;1.448;2023-02-28T04:18:43;100036.88;;;1.77;78.65
28306;BME280;7516;43.570;1.448;2023-02-28T04:21:11;100036.88;;;1.77;79.08
28306;BME280;7516;43.570;1.448;2023-02-28T04:23:39;100042.97;;;1.76;78.69
28306;BME280;7516;43.570;1.448;2023-02-28T04:26:07;100039.59;;;1.76;79.42
28306;BME280;7516;43.570;1.448;2023-02-28T04:28:36;100038.75;;;1.75;79.37
28306;BME280;7516;43.570;1.448;2023-02-28T04:31:05;100041.22;;;1.77;79.04
28306;BME280;7516;43.570;1.448;2023-02-28T04:33:33;100035.34;;;1.75;78.65
28306;BME280;7516;43.570;1.448;2023-02-28T04:36:01;100038.13;;;1.72;78.78
28306;BME280;7516;43.570;1.448;2023-02-28T04:38:32;100039.28;;;1.68;78.75
28306;BME280;7516;43.570;1.448;2023-02-28T04:40:59;100049.94;;;1.63;79.30
28306;BME280;7516;43.570;1.448;2023-02-28T04:43:29;100042.81;;;1.54;78.64
28306;BME280;7516;43.570;1.448;2023-02-28T04:45:58;100049.25;;;1.48;78.83
28306;BME280;7516;43.570;1.448;2023-02-28T04:48:29;100052.13;;;1.44;78.80
28306;BME280;7516;43.570;1.448;2023-02-28T04:51:00;100037.19;;;1.36;79.48
28306;BME280;7516;43.570;1.448;2023-02-28T04:53:28;100035.03;;;1.30;79.54
28306;BME280;7516;43.570;1.448;2023-02-28T04:55:56;100037.91;;;1.26;79.14
28306;BME280;7516;43.570;1.448;2023-02-28T04:58:24;100034.00;;;1.20;79.37
28306;BME280;7516;43.570;1.448;2023-02-28T05:00:54;100034.44;;;1.14;79.24
28306;BME280;7516;43.570;1.448;2023-02-28T05:03:28;100043.28;;;1.10;79.65
28306;BME280;7516;43.570;1.448;2023-02-28T05:05:55;100046.28;;;1.04;79.11
28306;BME280;7516;43.570;1.448;2023-02-28T05:08:23;100044.00;;;0.99;79.65
28306;BME280;7516;43.570;1.448;2023-02-28T05:10:51;100046.91;;;0.95;79.70
28306;BME280;7516;43.570;1.448;2023-02-28T05:13:18;100047.09;;;0.92;79.95
28306;BME280;7516;43.570;1.448;2023-02-28T05:15:46;100046.47;;;0.88;79.82
28306;BME280;7516;43.570;1.448;2023-02-28T05:18:15;100056.19;;;0.85;79.79
28306;BME280;7516;43.570;1.448;2023-02-28T05:20:42;100047.81;;;0.81;80.11
28306;BME280;7516;43.570;1.448;2023-02-28T05:23:12;100044.72;;;0.76;80.12
28306;BME280;7516;43.570;1.448;2023-02-28T05:25:40;100046.56;;;0.74;80.44
28306;BME280;7516;43.570;1.448;2023-02-28T05:28:08;100039.16;;;0.69;80.34
28306;BME280;7516;43.570;1.448;2023-02-28T05:30:36;100046.25;;;0.66;80.51
28306;BME280;7516;43.570;1.448;2023-02-28T05:33:03;100056.66;;;0.64;80.53
28306;BME280;7516;43.570;1.448;2023-02-28T05:35:32;100061.22;;;0.61;80.80
28306;BME280;7516;43.570;1.448;2023-02-28T05:38:00;100060.47;;;0.59;80.63
28306;BME280;7516;43.570;1.448;2023-02-28T05:40:27;100057.19;;;0.57;80.92
28306;BME280;7516;43.570;1.448;2023-02-28T05:42:55;100054.78;;;0.54;80.91
28306;BME280;7516;43.570;1.448;2023-02-28T05:45:22;100062.63;;;0.52;81.12
28306;BME280;7516;43.570;1.448;2023-02-28T05:47:53;100063.66;;;0.50;80.93
28306;BME280;7516;43.570;1.448;2023-02-28T05:50:21;100062.00;;;0.49;81.64
28306;BME280;7516;43.570;1.448;2023-02-28T05:52:51;100068.16;;;0.46;81.32
28306;BME280;7516;43.570;1.448;2023-02-28T05:55:19;100061.38;;;0.45;81.74
28306;BME280;7516;43.570;1.448;2023-02-28T05:57:46;100069.22;;;0.44;81.85
28306;BME280;7516;43.570;1.448;2023-02-28T06:00:14;100077.03;;;0.42;82.11
28306;BME280;7516;43.570;1.448;2023-02-28T06:02:43;100078.88;;;0.40;82.05
28306;BME280;7516;43.570;1.448;2023-02-28T06:05:14;100072.16;;;0.37;82.16
28306;BME280;7516;43.570;1.448;2023-02-28T06:07:42;100070.41;;;0.38;82.36
28306;BME280;7516;43.570;1.448;2023-02-28T06:10:12;100066.28;;;0.35;83.00
28306;BME280;7516;43.570;1.448;2023-02-28T06:12:40;100063.00;;;0.33;83.19
28306;BME280;7516;43.570;1.448;2023-02-28T06:15:11;100068.16;;;0.33;82.97
28306;BME280;7516;43.570;1.448;2023-02-28T06:17:39;100064.75;;;0.33;83.41
28306;BME280;7516;43.570;1.448;2023-02-28T06:20:09;100065.66;;;0.32;83.60
28306;BME280;7516;43.570;1.448;2023-02-28T06:22:39;100065.75;;;0.30;83.71
28306;BME280;7516;43.570;1.448;2023-02-28T06:25:08;100078.75;;;0.29;83.51
28306;BME280;7516;43.570;1.448;2023-02-28T06:27:37;100075.44;;;0.27;84.08
28306;BME280;7516;43.570;1.448;2023-02-28T06:30:06;100081.53;;;0.26;84.28
28306;BME280;7516;43.570;1.448;2023-02-28T06:32:34;100086.69;;;0.26;84.37
28306;BME280;7516;43.570;1.448;2023-02-28T06:35:02;100085.13;;;0.23;84.65
28306;BME280;7516;43.570;1.448;2023-02-28T06:37:31;100086.78;;;0.24;84.76
28306;BME280;7516;43.570;1.448;2023-02-28T06:39:58;100079.88;;;0.25;84.87
28306;BME280;7516;43.570;1.448;2023-02-28T06:42:26;100084.72;;;0.29;85.12
28306;BME280;7516;43.570;1.448;2023-02-28T06:44:56;100081.13;;;0.32;84.96
28306;BME280;7516;43.570;1.448;2023-02-28T06:47:24;100079.28;;;0.34;85.45
28306;BME280;7516;43.570;1.448;2023-02-28T06:49:51;100089.38;;;0.37;85.58
28306;BME280;7516;43.570;1.448;2023-02-28T06:52:19;100089.00;;;0.43;86.06
28306;BME280;7516;43.570;1.448;2023-02-28T06:54:48;100089.44;;;0.50;85.97
28306;BME280;7516;43.570;1.448;2023-02-28T06:57:26;100093.25;;;0.57;86.37
28306;BME280;7516;43.570;1.448;2023-02-28T06:59:58;100090.41;;;0.61;85.92
28306;BME280;7516;43.570;1.448;2023-02-28T07:02:26;100089.16;;;0.67;86.28
28306;BME280;7516;43.570;1.448;2023-02-28T07:04:54;100101.03;;;0.69;86.62
28306;BME280;7516;43.570;1.448;2023-02-28T07:07:21;100095.66;;;0.72;86.79
28306;BME280;7516;43.570;1.448;2023-02-28T07:09:49;100087.75;;;0.75;86.81
28306;BME280;7516;43.570;1.448;2023-02-28T07:12:17;100096.00;;;0.81;87.00
28306;BME280;7516;43.570;1.448;2023-02-28T07:14:44;100101.88;;;0.83;87.42
28306;BME280;7516;43.570;1.448;2023-02-28T07:17:13;100097.44;;;0.85;87.29
28306;BME280;7516;43.570;1.448;2023-02-28T07:19:40;100094.47;;;0.91;87.74
28306;BME280;7516;43.570;1.448;2023-02-28T07:22:08;100097.78;;;0.93;87.71
28306;BME280;7516;43.570;1.448;2023-02-28T07:24:36;100101.19;;;0.93;87.71
28306;BME280;7516;43.570;1.448;2023-02-28T07:27:04;100098.59;;;0.93;87.99
28306;BME280;7516;43.570;1.448;2023-02-28T07:29:32;100105.59;;;0.91;87.82
28306;BME280;7516;43.570;1.448;2023-02-28T07:32:00;100108.28;;;0.90;88.05
28306;BME280;7516;43.570;1.448;2023-02-28T07:34:29;100107.56;;;0.88;88.09
28306;BME280;7516;43.570;1.448;2023-02-28T07:36:56;100101.78;;;0.84;88.13
28306;BME280;7516;43.570;1.448;2023-02-28T07:39:24;100107.88;;;0.83;88.41
28306;BME280;7516;43.570;1.448;2023-02-28T07:41:51;100108.59;;;0.85;88.40
28306;BME280;7516;43.570;1.448;2023-02-28T07:44:19;100121.28;;;0.88;88.88
28306;BME280;7516;43.570;1.448;2023-02-28T07:46:47;100112.50;;;0.91;88.81
28306;BME280;7516;43.570;1.448;2023-02-28T07:49:14;100116.56;;;0.95;89.11
28306;BME280;7516;43.570;1.448;2023-02-28T07:51:43;100115.31;;;1.00;88.78
28306;BME280;7516;43.570;1.448;2023-02-28T07:54:11;100120.88;;;1.07;89.08
28306;BME280;7516;43.570;1.448;2023-02-28T07:56:38;100119.69;;;1.12;89.40
28306;BME280;7516;43.570;1.448;2023-02-28T07:59:06;100125.25;;;1.19;89.45
28306;BME280;7516;43.570;1.448;2023-02-28T08:01:34;100130.91;;;1.24;90.12
28306;BME280;7516;43.570;1.448;2023-02-28T08:04:01;100133.41;;;1.26;89.30
28306;BME280;7516;43.570;1.448;2023-02-28T08:06:29;100136.63;;;1.29;89.58
28306;BME280;7516;43.570;1.448;2023-02-28T08:08:57;100141.34;;;1.35;89.85
28306;BME280;7516;43.570;1.448;2023-02-28T08:11:25;100137.66;;;1.39;89.75
28306;BME280;7516;43.570;1.448;2023-02-28T08:13:54;100144.16;;;1.45;89.15
28306;BME280;7516;43.570;1.448;2023-02-28T08:16:21;100140.31;;;1.50;89.50
28306;BME280;7516;43.570;1.448;2023-02-28T08:18:50;100134.53;;;1.60;89.75
28306;BME280;7516;43.570;1.448;2023-02-28T08:21:18;100147.97;;;1.65;89.17
28306;BME280;7516;43.570;1.448;2023-02-28T08:23:47;100132.66;;;1.74;89.66
28306;BME280;7516;43.570;1.448;2023-02-28T08:26:17;100130.38;;;1.82;89.62
28306;BME280;7516;43.570;1.448;2023-02-28T08:28:44;100136.97;;;1.86;89.48
28306;BME280;7516;43.570;1.448;2023-02-28T08:31:14;100136.03;;;1.87;88.43
28306;BME280;7516;43.570;1.448;2023-02-28T08:33:42;100145.34;;;1.90;88.27
28306;BME280;7516;43.570;1.448;2023-02-28T08:36:11;100138.19;;;1.94;88.16
28306;BME280;7516;43.570;1.448;2023-02-28T08:38:39;100133.44;;;2.00;88.11
28306;BME280;7516;43.570;1.448;2023-02-28T08:41:09;100143.63;;;2.14;88.62
28306;BME280;7516;43.570;1.448;2023-02-28T08:43:39;100152.59;;;2.21;87.38
28306;BME280;7516;43.570;1.448;2023-02-28T08:46:07;100146.28;;;2.25;88.03
28306;BME280;7516;43.570;1.448;2023-02-28T08:48:35;100149.25;;;2.32;88.21
28306;BME280;7516;43.570;1.448;2023-02-28T08:51:07;100155.63;;;2.39;87.06
28306;BME280;7516;43.570;1.448;2023-02-28T08:53:36;100156.44;;;2.52;86.63
28306;BME280;7516;43.570;1.448;2023-02-28T08:56:05;100170.22;;;2.64;87.67
28306;BME280;7516;43.570;1.448;2023-02-28T08:58:34;100164.53;;;2.72;87.59
28306;BME280;7516;43.570;1.448;2023-02-28T09:01:08;100156.31;;;2.78;87.23
28306;BME280;7516;43.570;1.448;2023-02-28T09:03:36;100160.91;;;2.85;85.55
28306;BME280;7516;43.570;1.448;2023-02-28T09:06:04;100162.94;;;2.93;86.92
28306;BME280;7516;43.570;1.448;2023-02-28T09:08:32;100160.97;;;2.96;85.83
28306;BME280;7516;43.570;1.448;2023-02-28T09:10:59;100159.09;;;2.98;85.73
28306;BME280;7516;43.570;1.448;2023-02-28T09:13:28;100161.56;;;3.00;84.92
28306;BME280;7516;43.570;1.448;2023-02-28T09:15:58;100152.16;;;2.99;84.52
28306;BME280;7516;43.570;1.448;2023-02-28T09:18:28;100158.38;;;2.96;85.03
28306;BME280;7516;43.570;1.448;2023-02-28T09:20:55;100161.28;;;2.92;85.22
28306;BME280;7516;43.570;1.448;2023-02-28T09:23:24;100163.41;;;2.87;84.26
28306;BME280;7516;43.570;1.448;2023-02-28T09:25:54;100165.63;;;2.80;83.83
28306;BME280;7516;43.570;1.448;2023-02-28T09:28:22;100167.69;;;2.75;85.08
28306;BME280;7516;43.570;1.448;2023-02-28T09:30:52;100181.81;;;2.71;84.66
28306;BME280;7516;43.570;1.448;2023-02-28T09:33:21;100173.31;;;2.69;83.96
28306;BME280;7516;43.570;1.448;2023-02-28T09:35:57;100167.59;;;2.77;83.68
28306;BME280;7516;43.570;1.448;2023-02-28T09:38:24;100168.69;;;2.85;84.38
28306;BME280;7516;43.570;1.448;2023-02-28T09:40:54;100174.13;;;2.93;84.49
28306;BME280;7516;43.570;1.448;2023-02-28T09:43:25;100175.31;;;3.00;83.43
28306;BME280;7516;43.570;1.448;2023-02-28T09:45:56;100179.34;;;3.05;84.30
28306;BME280;7516;43.570;1.448;2023-02-28T09:48:29;100185.09;;;3.08;83.17
28306;BME280;7516;43.570;1.448;2023-02-28T09:51:03;100172.88;;;3.10;82.89
28306;BME280;7516;43.570;1.448;2023-02-28T09:53:34;100175.97;;;3.15;82.41
28306;BME280;7516;43.570;1.448;2023-02-28T09:56:07;100180.91;;;3.18;83.59
28306;BME280;7516;43.570;1.448;2023-02-28T09:58:40;100178.56;;;3.26;82.44
28306;BME280;7516;43.570;1.448;2023-02-28T10:01:17;100184.28;;;3.43;82.33
28306;BME280;7516;43.570;1.448;2023-02-28T10:03:53;100191.38;;;3.63;82.48
28306;BME280;7516;43.570;1.448;2023-02-28T10:06:29;100172.88;;;3.78;82.98
28306;BME280;7516;43.570;1.448;2023-02-28T10:09:02;100189.84;;;3.83;82.45
28306;BME280;7516;43.570;1.448;2023-02-28T10:11:33;100185.50;;;3.83;82.53
28306;BME280;7516;43.570;1.448;2023-02-28T10:14:06;100168.66;;;3.77;80.89
28306;BME280;7516;43.570;1.448;2023-02-28T10:16:41;100175.84;;;3.74;80.91
28306;BME280;7516;43.570;1.448;2023-02-28T10:19:17;100184.22;;;3.77;80.87
28306;BME280;7516;43.570;1.448;2023-02-28T10:21:52;100178.78;;;3.81;81.25
28306;BME280;7516;43.570;1.448;2023-02-28T10:24:28;100186.31;;;3.84;81.13
28306;BME280;7516;43.570;1.448;2023-02-28T10:27:00;100183.50;;;3.87;81.26
28306;BME280;7516;43.570;1.448;2023-02-28T10:29:31;100189.16;;;3.92;80.30
28306;BME280;7516;43.570;1.448;2023-02-28T10:32:02;100183.75;;;3.95;80.56
28306;BME280;7516;43.570;1.448;2023-02-28T10:34:31;100186.69;;;4.01;80.93
28306;BME280;7516;43.570;1.448;2023-02-28T10:37:00;100185.25;;;4.08;80.60
28306;BME280;7516;43.570;1.448;2023-02-28T10:39:41;100198.34;;;4.18;80.22
28306;BME280;7516;43.570;1.448;2023-02-28T10:42:23;100186.41;;;4.27;79.35
28306;BME280;7516;43.570;1.448;2023-02-28T10:45:10;100193.09;;;4.40;79.49
28306;BME280;7516;43.570;1.448;2023-02-28T10:50:30;100180.59;;;4.57;79.69
28306;BME280;7516;43.570;1.448;2023-02-28T10:53:21;100182.31;;;4.67;79.77
28306;BME280;7516;43.570;1.448;2023-02-28T10:55:57;100174.28;;;4.70;78.73
28306;BME280;7516;43.570;1.448;2023-02-28T10:58:27;100188.81;;;4.73;78.85
28306;BME280;7516;43.570;1.448;2023-02-28T11:00:55;100180.31;;;4.71;78.69
28306;BME280;7516;43.570;1.448;2023-02-28T11:03:29;100196.72;;;4.71;78.62
28306;BME280;7516;43.570;1.448;2023-02-28T11:05:58;100190.44;;;4.74;78.06
28306;BME280;7516;43.570;1.448;2023-02-28T11:08:27;100197.16;;;4.76;78.25
28306;BME280;7516;43.570;1.448;2023-02-28T11:10:56;100190.19;;;4.77;77.86
28306;BME280;7516;43.570;1.448;2023-02-28T11:13:31;100185.47;;;4.82;77.86
28306;BME280;7516;43.570;1.448;2023-02-28T11:16:02;100189.44;;;4.86;77.42
28306;BME280;7516;43.570;1.448;2023-02-28T11:18:36;100193.69;;;4.87;77.27
28306;BME280;7516;43.570;1.448;2023-02-28T11:21:06;100187.56;;;4.88;77.02
28306;BME280;7516;43.570;1.448;2023-02-28T11:23:39;100188.50;;;4.87;77.05
28306;BME280;7516;43.570;1.448;2023-02-28T11:26:08;100189.44;;;4.86;76.24
28306;BME280;7516;43.570;1.448;2023-02-28T11:28:38;100189.34;;;4.87;76.35
28306;BME280;7516;43.570;1.448;2023-02-28T11:31:17;100195.34;;;4.88;76.34
28306;BME280;7516;43.570;1.448;2023-02-28T11:33:48;100193.34;;;4.91;75.82
28306;BME280;7516;43.570;1.448;2023-02-28T11:36:19;100192.03;;;4.86;76.15
28306;BME280;7516;43.570;1.448;2023-02-28T11:38:50;100184.03;;;4.89;75.70
28306;BME280;7516;43.570;1.448;2023-02-28T11:41:31;100179.16;;;4.96;75.70
28306;BME280;7516;43.570;1.448;2023-02-28T11:44:15;100177.34;;;5.07;75.83
28306;BME280;7516;43.570;1.448;2023-02-28T11:46:50;100168.28;;;5.22;75.64
28306;BME280;7516;43.570;1.448;2023-02-28T11:49:34;100164.34;;;5.28;75.31
28306;BME280;7516;43.570;1.448;2023-02-28T11:52:10;100155.28;;;5.22;74.95
28306;BME280;7516;43.570;1.448;2023-02-28T11:55:09;100150.28;;;5.10;74.77
28306;BME280;7516;43.570;1.448;2023-02-28T11:57:55;100141.50;;;5.01;74.84
28306;BME280;7516;43.570;1.448;2023-02-28T12:00:37;100146.69;;;5.01;74.78
28306;BME280;7516;43.570;1.448;2023-02-28T12:03:17;100151.38;;;5.07;74.45
28306;BME280;7516;43.570;1.448;2023-02-28T12:05:57;100145.97;;;5.20;74.31
28306;BME280;7516;43.570;1.448;2023-02-28T12:08:43;100150.97;;;5.33;73.88
28306;BME280;7516;43.570;1.448;2023-02-28T12:11:20;100143.66;;;5.47;73.83
28306;BME280;7516;43.570;1.448;2023-02-28T12:14:06;100157.16;;;5.62;73.81
28306;BME280;7516;43.570;1.448;2023-02-28T12:16:49;100134.78;;;5.71;73.00
28306;BME280;7516;43.570;1.448;2023-02-28T12:19:21;100123.59;;;5.80;73.26
28306;BME280;7516;43.570;1.448;2023-02-28T12:22:20;100117.63;;;5.89;72.91
28306;BME280;7516;43.570;1.448;2023-02-28T12:28:03;100120.41;;;6.07;72.19
28306;BME280;7516;43.570;1.448;2023-02-28T12:30:33;100132.97;;;6.01;71.85
28306;BME280;7516;43.570;1.448;2023-02-28T12:33:04;100113.41;;;5.97;71.64
28306;BME280;7516;43.570;1.448;2023-02-28T12:35:36;100108.88;;;5.99;71.89
28306;BME280;7516;43.570;1.448;2023-02-28T12:38:10;100111.47;;;5.99;71.80
28306;BME280;7516;43.570;1.448;2023-02-28T12:40:46;100117.25;;;6.03;70.77
28306;BME280;7516;43.570;1.448;2023-02-28T12:43:19;100116.31;;;6.14;70.56
28306;BME280;7516;43.570;1.448;2023-02-28T12:45:51;100124.13;;;6.14;70.11
28306;BME280;7516;43.570;1.448;2023-02-28T12:48:25;100115.22;;;6.16;70.43
28306;BME280;7516;43.570;1.448;2023-02-28T12:50:56;100105.91;;;6.14;70.23
28306;BME280;7516;43.570;1.448;2023-02-28T12:53:27;100101.13;;;6.19;69.76
28306;BME280;7516;43.570;1.448;2023-02-28T12:56:07;100108.38;;;6.25;70.05
28306;BME280;7516;43.570;1.448;2023-02-28T12:58:41;100105.94;;;6.23;69.15
28306;BME280;7516;43.570;1.448;2023-02-28T13:01:34;100097.00;;;6.16;70.08
28306;BME280;7516;43.570;1.448;2023-02-28T13:04:31;100095.78;;;6.20;69.46
28306;BME280;7516;43.570;1.448;2023-02-28T13:09:58;100088.69;;;6.22;69.08
28306;BME280;7516;43.570;1.448;2023-02-28T13:12:27;100082.25;;;6.36;69.72
28306;BME280;7516;43.570;1.448;2023-02-28T13:15:06;100076.91;;;6.37;68.87
28306;BME280;7516;43.570;1.448;2023-02-28T13:17:39;100075.13;;;6.38;68.23
28306;BME280;7516;43.570;1.448;2023-02-28T13:20:17;100068.84;;;6.40;68.32
28306;BME280;7516;43.570;1.448;2023-02-28T13:22:46;100084.47;;;6.40;68.33
28306;BME280;7516;43.570;1.448;2023-02-28T13:34:16;100085.41;;;6.30;67.65
28306;BME280;7516;43.570;1.448;2023-02-28T13:36:44;100097.47;;;6.31;66.47
28306;BME280;7516;43.570;1.448;2023-02-28T13:39:45;100077.47;;;6.31;66.97
28306;BME280;7516;43.570;1.448;2023-02-28T13:42:34;100103.22;;;6.44;66.69
28306;BME280;7516;43.570;1.448;2023-02-28T13:45:23;100079.91;;;6.42;66.45
28306;BME280;7516;43.570;1.448;2023-02-28T13:47:59;100075.13;;;6.38;65.75
28306;BME280;7516;43.570;1.448;2023-02-28T13:50:31;100078.00;;;6.35;65.72
28306;BME280;7516;43.570;1.448;2023-02-28T13:56:03;100080.19;;;6.30;65.50
28306;BME280;7516;43.570;1.448;2023-02-28T13:58:43;100069.09;;;6.18;64.76
28306;BME280;7516;43.570;1.448;2023-02-28T14:01:29;100061.00;;;6.12;64.84
28306;BME280;7516;43.570;1.448;2023-02-28T14:07:07;100062.91;;;6.19;64.14